Time;durP1;ratioP1;P1;durP2;ratioP2;P2;SDS_P1;SDS_P2;PMS_P1;PMS_P2;Temp;Humidity;BMP_temperature;BMP_pressure;BME280_temperature;BME280_humidity;BME280_pressure;Samples;Min_cycle;Max_cycle;Signal;HPM_P1;HPM_P2
2021/12/22 00:00:54;;;;;;;6.03;3.90;;;;;;;20.63;31.07;102469.50;7311865;19;130286;-60
2021/12/22 00:03:22;;;;;;;7.22;4.07;;;;;;;20.60;31.12;102471.66;7314134;19;130813;-61
2021/12/22 00:05:51;;;;;;;6.50;4.28;;;;;;;20.56;31.37;102481.50;7310751;19;131213;-62
2021/12/22 00:08:18;;;;;;;6.47;3.90;;;;;;;20.52;30.93;102477.47;7315235;19;130656;-60
2021/12/22 00:10:46;;;;;;;7.25;4.22;;;;;;;20.50;30.94;102478.75;7310973;19;131018;-60
2021/12/22 00:13:13;;;;;;;5.25;3.67;;;;;;;20.47;31.12;102476.44;7314997;19;131341;-60
2021/12/22 00:15:40;;;;;;;7.95;4.43;;;;;;;20.43;31.29;102473.25;7309887;19;130707;-60
2021/12/22 00:18:08;;;;;;;7.22;4.43;;;;;;;20.41;30.95;102469.84;7312742;19;130911;-60
2021/12/22 00:20:35;;;;;;;9.02;4.13;;;;;;;20.38;30.98;102467.50;7312046;19;129004;-60
2021/12/22 00:23:02;;;;;;;8.10;4.07;;;;;;;20.35;31.41;102459.59;7313031;19;129229;-61
2021/12/22 00:25:29;;;;;;;8.00;4.70;;;;;;;20.32;31.12;102460.00;7312581;19;131819;-60
2021/12/22 00:27:58;;;;;;;8.45;3.53;;;;;;;20.28;31.20;102454.06;7314046;19;130920;-60
2021/12/22 00:30:26;;;;;;;8.85;4.25;;;;;;;20.26;31.26;102458.97;7316198;19;128929;-60
2021/12/22 00:32:56;;;;;;;6.97;3.88;;;;;;;20.22;31.24;102458.56;7313641;19;129108;-60
2021/12/22 00:35:30;;;;;;;7.97;4.50;;;;;;;20.20;31.48;102459.88;7316462;19;131312;-59
2021/12/22 00:37:56;;;;;;;6.03;3.65;;;;;;;20.17;31.56;102466.72;7312555;19;131423;-60
2021/12/22 00:40:23;;;;;;;6.25;4.05;;;;;;;20.14;31.38;102461.59;7314908;19;128830;-60
2021/12/22 00:42:50;;;;;;;8.68;4.15;;;;;;;20.13;31.50;102459.88;7313432;19;129812;-59
2021/12/22 00:45:18;;;;;;;7.95;3.95;;;;;;;20.09;31.73;102451.16;7315794;19;131066;-60
2021/12/22 00:47:45;;;;;;;7.70;4.03;;;;;;;20.09;31.38;102458.59;7312073;19;131301;-59
2021/12/22 00:50:12;;;;;;;6.07;3.90;;;;;;;20.08;31.55;102448.56;7314215;19;130721;-61
2021/12/22 00:52:39;;;;;;;6.78;3.92;;;;;;;20.05;31.68;102446.25;7312089;19;128934;-60
2021/12/22 00:55:06;;;;;;;7.10;4.20;;;;;;;19.99;31.83;102451.59;7312607;19;131469;-60
2021/12/22 00:57:34;;;;;;;7.30;3.95;;;;;;;19.97;31.33;102453.69;7314502;19;131493;-59
2021/12/22 01:00:04;;;;;;;6.90;4.00;;;;;;;19.96;31.49;102456.72;7310784;19;129029;-60
2021/12/22 01:02:32;;;;;;;7.00;4.13;;;;;;;19.93;31.29;102449.69;7315136;19;129090;-60
2021/12/22 01:04:59;;;;;;;7.68;4.13;;;;;;;19.93;31.52;102454.34;7311884;19;130463;-60
2021/12/22 01:07:25;;;;;;;5.78;4.05;;;;;;;19.90;31.31;102454.78;7314711;19;130767;-59
2021/12/22 01:10:14;;;;;;;10.17;4.17;;;;;;;19.88;31.53;102452.25;7310707;19;130260;-60
2021/12/22 01:12:41;;;;;;;7.88;4.20;;;;;;;19.86;31.46;102465.50;7314440;19;128748;-60
2021/12/22 01:15:11;;;;;;;7.18;3.88;;;;;;;19.83;31.52;102460.34;7312378;19;133558;-59
2021/12/22 01:17:43;;;;;;;7.35;3.70;;;;;;;19.82;31.75;102465.06;7313619;19;131709;-60
2021/12/22 01:20:21;;;;;;;5.80;3.63;;;;;;;19.81;31.63;102468.09;7311463;19;130058;-59
2021/12/22 01:22:49;;;;;;;6.78;3.78;;;;;;;19.80;31.73;102456.09;7313305;19;129872;-60
2021/12/22 01:25:19;;;;;;;8.20;4.35;;;;;;;19.80;31.73;102460.81;7311960;19;130572;-59
2021/12/22 01:27:46;;;;;;;6.18;3.65;;;;;;;19.76;31.77;102449.25;7311518;19;130657;-60
2021/12/22 01:30:27;;;;;;;6.93;3.85;;;;;;;19.76;31.69;102442.88;7316612;19;130722;-60
2021/12/22 01:32:57;;;;;;;7.15;4.28;;;;;;;19.73;31.16;102437.75;7313384;19;129703;-59
2021/12/22 01:35:29;;;;;;;9.93;3.78;;;;;;;19.73;31.59;102432.19;7314074;19;130910;-58
2021/12/22 01:37:56;;;;;;;5.88;3.55;;;;;;;19.70;31.67;102430.72;7315128;19;130613;-60
2021/12/22 01:40:23;;;;;;;5.68;3.70;;;;;;;19.70;31.73;102433.50;7312486;19;128850;-60
2021/12/22 01:42:51;;;;;;;6.97;3.78;;;;;;;19.68;31.42;102430.94;7315681;19;128950;-60
2021/12/22 01:45:48;;;;;;;5.40;3.67;;;;;;;19.67;31.62;102445.88;7312029;19;130806;-60
2021/12/22 01:51:07;;;;;;;7.38;4.00;;;;;;;19.62;31.75;102445.66;7312640;19;128958;-60
2021/12/22 01:53:46;;;;;;;6.03;3.50;;;;;;;19.62;31.55;102445.66;7314089;19;129607;-59
2021/12/22 01:56:23;;;;;;;8.05;3.67;;;;;;;19.57;31.59;102445.47;7315086;19;130939;-60
2021/12/22 01:58:53;;;;;;;6.47;3.72;;;;;;;19.56;31.53;102443.78;7312031;19;130460;-60
2021/12/22 02:01:20;;;;;;;6.43;3.42;;;;;;;19.54;31.80;102445.91;7315156;19;128832;-59
2021/12/22 02:03:50;;;;;;;5.68;3.92;;;;;;;19.53;31.60;102445.03;7310716;19;130769;-60
2021/12/22 02:06:19;;;;;;;7.07;4.25;;;;;;;19.52;31.74;102448.88;7315188;19;131320;-59
2021/12/22 02:08:46;;;;;;;8.10;4.28;;;;;;;19.52;31.76;102453.59;7312271;19;130748;-59
2021/12/22 02:11:15;;;;;;;6.18;4.30;;;;;;;19.52;31.30;102461.91;7313735;19;128793;-60
2021/12/22 02:13:46;;;;;;;5.07;3.53;;;;;;;19.49;31.75;102460.44;7311154;19;128864;-59
2021/12/22 02:16:16;;;;;;;10.13;3.78;;;;;;;19.49;31.36;102470.66;7312335;19;131167;-60
2021/12/22 02:18:50;;;;;;;5.47;4.18;;;;;;;19.49;31.66;102460.44;7311398;19;130512;-59
2021/12/22 02:21:18;;;;;;;8.32;3.85;;;;;;;19.49;31.42;102465.13;7311962;19;128779;-60
2021/12/22 02:23:46;;;;;;;7.97;3.90;;;;;;;19.48;31.46;102466.19;7313351;19;129750;-60
2021/12/22 02:26:19;;;;;;;7.55;4.18;;;;;;;19.46;31.71;102469.19;7310924;19;130391;-60
2021/12/22 02:28:53;;;;;;;4.68;3.60;;;;;;;19.46;31.51;102462.75;7313862;19;130575;-59
2021/12/22 02:31:21;;;;;;;7.68;3.72;;;;;;;19.47;31.68;102461.69;7310440;19;128884;-59
2021/12/22 02:33:50;;;;;;;6.03;3.60;;;;;;;19.45;31.30;102452.72;7313106;19;128875;-60
2021/12/22 02:38:50;;;;;;;6.57;3.80;;;;;;;19.45;31.42;102445.28;7313310;19;130415;-60
2021/12/22 02:41:20;;;;;;;7.00;3.67;;;;;;;19.45;31.71;102441.63;7323974;19;128972;-59
2021/12/22 02:43:49;;;;;;;7.07;3.67;;;;;;;19.42;31.29;102453.19;7326616;19;129991;-60
2021/12/22 02:46:20;;;;;;;6.03;3.63;;;;;;;19.41;31.71;102457.84;7326952;19;130685;-60
2021/12/22 02:48:47;;;;;;;7.95;4.13;;;;;;;19.40;31.46;102455.31;7322881;19;131590;-60
2021/12/22 02:51:15;;;;;;;6.72;3.40;;;;;;;19.40;31.58;102456.16;7328453;19;130167;-59
2021/12/22 02:54:07;;;;;;;5.32;3.65;;;;;;;19.38;31.38;102456.38;7323189;19;128731;-60
2021/12/22 02:56:52;;;;;;;4.97;3.20;;;;;;;19.36;31.67;102450.19;7327402;19;131029;-60
2021/12/22 02:59:52;;;;;;;5.70;3.90;;;;;;;19.36;31.52;102450.19;7323929;19;130871;-60
2021/12/22 03:02:35;;;;;;;6.22;3.75;;;;;;;19.34;31.31;102452.31;7324200;19;128955;-59
2021/12/22 03:05:04;;;;;;;7.47;3.88;;;;;;;19.32;31.76;102451.66;7324796;19;129045;-59
2021/12/22 03:07:32;;;;;;;7.22;3.60;;;;;;;19.31;31.55;102447.22;7323579;19;130558;-60
2021/12/22 03:10:12;;;;;;;4.57;3.42;;;;;;;19.30;31.64;102453.81;7327604;19;130732;-60
2021/12/22 03:12:40;;;;;;;5.45;3.28;;;;;;;19.28;31.40;102464.28;7324002;19;129260;-60
2021/12/22 03:15:09;;;;;;;6.80;4.10;;;;;;;19.29;31.28;102462.34;7326284;19;130756;-59
2021/12/22 03:17:38;;;;;;;5.82;3.70;;;;;;;19.27;31.38;102462.56;7322761;19;130781;-59
2021/12/22 03:20:07;;;;;;;6.78;3.53;;;;;;;19.26;31.57;102460.88;7325393;19;130451;-60
2021/12/22 03:22:35;;;;;;;8.23;3.60;;;;;;;19.24;31.76;102457.44;7323745;19;132145;-59
2021/12/22 03:25:12;;;;;;;6.93;3.67;;;;;;;19.22;31.73;102457.66;7324347;19;129308;-60
2021/12/22 03:27:45;;;;;;;6.53;3.50;;;;;;;19.23;31.43;102461.28;7323846;19;130203;-59
2021/12/22 03:30:15;;;;;;;8.52;3.90;;;;;;;19.21;31.39;102458.72;7323689;19;132278;-59
2021/12/22 03:32:42;;;;;;;8.02;4.15;;;;;;;19.19;31.22;102458.06;7325996;19;129462;-60
2021/12/22 03:35:16;;;;;;;7.57;3.65;;;;;;;19.19;31.57;102469.16;7320822;19;130430;-60
2021/12/22 03:37:44;;;;;;;6.43;3.40;;;;;;;19.19;31.46;102468.31;7324066;19;131916;-59
2021/12/22 03:40:11;;;;;;;7.18;3.85;;;;;;;19.17;31.72;102470.44;7322954;19;130649;-59
2021/12/22 03:42:37;;;;;;;4.93;3.33;;;;;;;19.16;31.57;102465.94;7325883;19;129291;-60
2021/12/22 03:45:05;;;;;;;6.45;3.60;;;;;;;19.16;31.67;102457.63;7324193;19;129017;-59
2021/12/22 03:47:32;;;;;;;5.75;3.38;;;;;;;19.14;31.67;102456.97;7324551;19;131031;-59
2021/12/22 03:49:58;;;;;;;5.47;3.58;;;;;;;19.14;31.40;102462.53;7322290;19;130540;-60
2021/12/22 03:52:25;;;;;;;5.35;3.35;;;;;;;19.13;31.71;102460.81;7313907;19;129741;-59
2021/12/22 03:54:58;;;;;;;7.50;3.50;;;;;;;19.12;31.44;102457.22;7318893;19;130402;-60
2021/12/22 03:57:26;;;;;;;7.07;3.55;;;;;;;19.11;31.65;102460.19;7313791;19;130906;-60
2021/12/22 03:59:53;;;;;;;6.30;3.40;;;;;;;19.10;31.43;102456.56;7317614;19;131079;-60
2021/12/22 04:02:21;;;;;;;7.25;3.67;;;;;;;19.09;31.55;102449.31;7316338;19;131307;-59
2021/12/22 04:04:49;;;;;;;5.38;3.40;;;;;;;19.06;31.40;102453.38;7318359;19;129544;-61
2021/12/22 04:07:17;;;;;;;6.78;4.00;;;;;;;19.06;31.52;102453.38;7313930;19;130704;-59
2021/12/22 04:09:44;;;;;;;4.68;3.08;;;;;;;19.05;31.60;102457.19;7314098;19;130779;-60
2021/12/22 04:12:12;;;;;;;5.78;3.63;;;;;;;19.04;31.72;102449.06;7317790;19;129402;-59
2021/12/22 04:14:39;;;;;;;6.80;3.65;;;;;;;19.02;31.46;102452.06;7315945;19;129692;-59
2021/12/22 04:17:05;;;;;;;5.60;3.63;;;;;;;19.02;31.34;102451.19;7317576;19;130784;-59
2021/12/22 04:19:32;;;;;;;4.97;3.53;;;;;;;19.00;31.28;102451.41;7314723;19;131191;-59
2021/12/22 04:21:59;;;;;;;5.70;3.53;;;;;;;18.98;31.61;102456.31;7318618;19;130467;-61
2021/12/22 04:24:25;;;;;;;5.78;3.35;;;;;;;18.98;31.63;102449.94;7313665;19;128944;-58
2021/12/22 04:26:52;;;;;;;5.30;3.40;;;;;;;18.98;31.29;102452.72;7316251;19;131384;-60
2021/12/22 04:29:19;;;;;;;6.38;3.22;;;;;;;18.98;31.26;102459.09;7314037;19;131233;-60
2021/12/22 04:31:46;;;;;;;5.93;3.22;;;;;;;18.97;31.55;102457.38;7317203;19;128836;-59
2021/12/22 04:34:13;;;;;;;6.68;3.35;;;;;;;18.96;31.34;102450.13;7314032;19;130455;-60
2021/12/22 04:36:40;;;;;;;3.78;2.88;;;;;;;18.93;31.65;102447.81;7318303;19;131021;-59
2021/12/22 04:39:08;;;;;;;5.15;3.22;;;;;;;18.93;31.52;102453.34;7315032;19;130610;-59
2021/12/22 04:41:35;;;;;;;4.43;3.25;;;;;;;18.93;31.71;102447.81;7316430;19;130355;-59
2021/12/22 04:44:02;;;;;;;4.60;3.10;;;;;;;18.93;31.78;102439.47;7314380;19;130104;-59
2021/12/22 04:46:30;;;;;;;6.50;3.85;;;;;;;18.91;31.71;102433.28;7313443;19;130648;-60
2021/12/22 04:48:57;;;;;;;5.20;3.15;;;;;;;18.90;31.71;102431.56;7316384;19;131195;-59
2021/12/22 04:51:29;;;;;;;5.07;3.38;;;;;;;18.89;31.32;102443.72;7313654;19;130492;-59
2021/12/22 04:56:24;;;;;;;6.03;3.05;;;;;;;18.89;31.33;102432.63;7313916;19;131067;-59
2021/12/22 04:58:51;;;;;;;4.57;3.28;;;;;;;18.87;31.76;102430.09;7316091;19;130609;-59
2021/12/22 05:01:18;;;;;;;5.82;3.40;;;;;;;18.87;31.42;102430.09;7311560;19;128894;-59
2021/12/22 05:03:44;;;;;;;4.82;3.20;;;;;;;18.87;31.52;102441.19;7314650;19;129001;-59
2021/12/22 05:06:11;;;;;;;7.07;3.47;;;;;;;18.87;31.75;102435.63;7311939;19;130675;-59
2021/12/22 05:08:38;;;;;;;5.30;3.08;;;;;;;18.87;31.40;102429.22;7316306;19;130623;-59
2021/12/22 05:11:04;;;;;;;5.80;3.05;;;;;;;18.86;31.73;102431.16;7312895;19;128886;-59
2021/12/22 05:13:33;;;;;;;5.68;3.05;;;;;;;18.86;31.30;102427.50;7315525;19;129191;-60
2021/12/22 05:16:03;;;;;;;6.93;3.53;;;;;;;18.86;31.29;102424.72;7313469;19;131627;-59
2021/12/22 05:18:49;;;;;;;5.63;3.28;;;;;;;18.86;31.30;102421.97;7312084;19;130774;-60
2021/12/22 05:21:16;;;;;;;5.05;3.30;;;;;;;18.87;31.40;102423.66;7313179;19;128993;-59
2021/12/22 05:23:43;;;;;;;4.20;3.15;;;;;;;18.88;31.23;102422.59;7312122;19;130068;-59
2021/12/22 05:26:10;;;;;;;5.80;3.30;;;;;;;18.87;31.61;102420.91;7309351;19;130606;-59
2021/12/22 05:28:36;;;;;;;4.25;3.30;;;;;;;18.88;31.46;102422.59;7311518;19;133658;-60
2021/12/22 05:31:03;;;;;;;4.78;3.30;;;;;;;18.87;31.23;102415.34;7313779;19;128889;-59
2021/12/22 05:33:30;;;;;;;4.35;3.40;;;;;;;18.86;31.18;102416.41;7311760;19;129983;-59
2021/12/22 05:35:56;;;;;;;5.75;3.28;;;;;;;18.86;31.17;102424.72;7310735;19;131682;-59
2021/12/22 05:38:23;;;;;;;5.57;3.45;;;;;;;18.85;31.33;102418.34;7314843;19;130505;-60
2021/12/22 05:40:50;;;;;;;5.47;3.13;;;;;;;18.84;31.27;102404.69;7312443;19;128833;-59
2021/12/22 05:43:17;;;;;;;5.15;2.75;;;;;;;18.83;31.35;102411.31;7315717;19;129378;-60
2021/12/22 05:45:44;;;;;;;7.47;3.63;;;;;;;18.83;31.39;102414.09;7310958;19;131263;-59
2021/12/22 05:48:11;;;;;;;5.53;3.38;;;;;;;18.82;31.45;102416.00;7314234;19;131412;-59
2021/12/22 05:50:38;;;;;;;7.22;3.58;;;;;;;18.81;31.39;102413.44;7310681;19;129034;-59
2021/12/22 05:53:04;;;;;;;6.28;3.22;;;;;;;18.82;31.38;102415.16;7315199;19;130948;-59
2021/12/22 05:55:31;;;;;;;5.45;3.30;;;;;;;18.80;31.57;102411.72;7311541;19;131349;-59
2021/12/22 05:57:58;;;;;;;5.15;3.40;;;;;;;18.80;31.06;102414.50;7313753;19;131158;-60
2021/12/22 06:00:24;;;;;;;4.70;3.65;;;;;;;18.79;31.43;102415.56;7311790;19;129679;-59
2021/12/22 06:02:51;;;;;;;6.32;3.17;;;;;;;18.79;31.18;102415.56;7310582;19;129071;-58
2021/12/22 06:05:19;;;;;;;5.43;3.83;;;;;;;18.77;31.07;102411.09;7309622;19;130574;-60
2021/12/22 06:07:46;;;;;;;4.50;2.90;;;;;;;18.76;31.53;102405.75;7311001;19;130617;-58
2021/12/22 06:10:12;;;;;;;5.25;3.20;;;;;;;18.74;31.02;102408.72;7313126;19;129478;-59
2021/12/22 06:12:39;;;;;;;5.15;3.05;;;;;;;18.73;31.18;102418.09;7312179;19;128868;-60
2021/12/22 06:15:06;;;;;;;7.57;3.17;;;;;;;18.73;31.53;102417.25;7309708;19;130667;-59
2021/12/22 06:17:33;;;;;;;5.80;3.10;;;;;;;18.74;31.62;102422.59;7306728;19;130915;-59
2021/12/22 06:20:00;;;;;;;5.43;3.20;;;;;;;18.83;31.31;102422.41;7314450;19;129384;-59
2021/12/22 06:22:29;;;;;;;5.47;3.63;;;;;;;18.95;31.44;102423.50;7311802;19;129171;-59
2021/12/22 06:24:56;;;;;;;4.82;2.90;;;;;;;19.14;30.86;102420.91;7313236;19;131391;-60
2021/12/22 06:27:23;;;;;;;5.35;3.33;;;;;;;19.36;30.89;102416.88;7309489;19;130994;-59
2021/12/22 06:29:50;;;;;;;4.47;3.08;;;;;;;19.58;30.72;102413.00;7311776;19;129321;-59
2021/12/22 06:32:16;;;;;;;3.45;2.63;;;;;;;19.82;30.30;102419.78;7309659;19;130619;-59
2021/12/22 06:34:43;;;;;;;3.65;2.72;;;;;;;20.03;30.25;102415.06;7311470;19;130575;-60
2021/12/22 06:37:12;;;;;;;6.35;2.42;;;;;;;20.26;29.82;102418.16;7308912;19;131498;-59
2021/12/22 06:39:39;;;;;;;4.63;3.05;;;;;;;20.50;29.94;102415.69;7311196;19;130295;-60
2021/12/22 06:42:09;;;;;;;5.45;2.97;;;;;;;20.82;29.48;102426.81;7309221;19;130285;-59
2021/12/22 06:44:35;;;;;;;8.23;3.20;;;;;;;21.14;28.95;102426.81;7308540;19;130546;-59
2021/12/22 06:47:03;;;;;;;9.75;3.30;;;;;;;21.42;28.88;102425.47;7309031;19;131542;-60
2021/12/22 06:49:29;;;;;;;5.95;2.83;;;;;;;21.64;28.42;102413.94;7307265;19;130210;-59
2021/12/22 06:51:56;;;;;;;4.88;3.05;;;;;;;21.76;28.25;102412.09;7312840;19;128992;-59
2021/12/22 06:54:23;;;;;;;6.10;2.90;;;;;;;21.82;28.21;102397.22;7310211;19;130949;-60
2021/12/22 06:56:49;;;;;;;5.88;2.90;;;;;;;21.87;28.32;102406.84;7312455;19;130525;-60
2021/12/22 06:59:16;;;;;;;8.65;2.97;;;;;;;21.89;27.72;102410.25;7304934;19;130435;-59
2021/12/22 07:01:43;;;;;;;6.55;3.28;;;;;;;21.86;28.18;102407.91;7306901;19;134432;-59
2021/12/22 07:04:10;;;;;;;6.45;3.60;;;;;;;21.80;28.17;102416.09;7309935;19;130636;-58
2021/12/22 07:06:37;;;;;;;12.32;3.80;;;;;;;21.75;27.96;102415.97;7310562;19;130845;-60
2021/12/22 07:09:06;;;;;;;16.05;3.85;;;;;;;21.69;27.54;102422.44;7309710;19;128805;-59
2021/12/22 07:11:34;;;;;;;8.05;3.50;;;;;;;21.62;27.59;102413.31;7311496;19;129246;-60
2021/12/22 07:14:02;;;;;;;14.40;3.60;;;;;;;21.53;27.77;102415.56;7309020;19;130789;-60
2021/12/22 07:16:30;;;;;;;6.47;3.03;;;;;;;21.44;27.79;102416.91;7310413;19;131374;-58
2021/12/22 07:18:57;;;;;;;10.02;3.85;;;;;;;21.34;27.09;102412.72;7309454;19;129688;-59
2021/12/22 07:21:23;;;;;;;9.15;3.78;;;;;;;21.26;27.61;102412.16;7310182;19;129432;-59
2021/12/22 07:23:50;;;;;;;7.43;3.28;;;;;;;21.16;27.44;102413.53;7312287;19;131115;-58
2021/12/22 07:26:22;;;;;;;7.13;3.50;;;;;;;21.09;27.42;102412.72;7312500;19;130687;-59
2021/12/22 07:28:49;;;;;;;16.85;3.83;;;;;;;21.02;27.43;102409.16;7318262;19;129459;-60
2021/12/22 07:31:16;;;;;;;7.70;2.90;;;;;;;20.95;27.66;102406.41;7316342;19;128839;-59
2021/12/22 07:34:23;;;;;;;8.70;3.67;;;;;;;20.88;27.89;102406.47;7318612;19;130597;-59
2021/12/22 07:36:58;;;;;;;7.45;3.15;;;;;;;20.85;28.04;102412.47;7314229;19;130361;-60
2021/12/22 07:39:25;;;;;;;6.30;3.53;;;;;;;20.86;27.86;102402.22;7318744;19;129084;-59
2021/12/22 07:41:52;;;;;;;10.10;3.55;;;;;;;20.89;27.61;102402.63;7314887;19;129180;-59
2021/12/22 07:44:19;;;;;;;8.43;3.30;;;;;;;20.98;27.66;102410.66;7318080;19;130677;-59
2021/12/22 07:46:45;;;;;;;5.28;2.92;;;;;;;21.10;27.65;102419.16;7315189;19;131807;-60
2021/12/22 07:49:12;;;;;;;8.80;3.40;;;;;;;21.24;27.67;102405.94;7317463;19;129735;-59
2021/12/22 07:51:39;;;;;;;7.30;3.25;;;;;;;21.41;27.76;102409.00;7315412;19;128870;-59
2021/12/22 07:54:05;;;;;;;7.25;3.33;;;;;;;21.66;27.39;102409.00;7317136;19;130706;-60
2021/12/22 07:56:33;;;;;;;10.93;2.97;;;;;;;21.80;27.21;102391.03;7313220;19;133467;-59
2021/12/22 07:59:00;;;;;;;9.75;3.25;;;;;;;21.93;27.11;102400.31;7314015;19;129045;-60
2021/12/22 08:01:27;;;;;;;8.30;3.17;;;;;;;22.13;26.82;102391.69;7316787;19;128811;-59
2021/12/22 08:03:54;;;;;;;11.40;2.70;;;;;;;22.18;26.79;102396.56;7315829;19;135986;-59
2021/12/22 08:06:21;;;;;;;10.23;3.67;;;;;;;22.16;26.89;102396.81;7315058;19;131244;-60
2021/12/22 08:08:48;;;;;;;5.82;3.17;;;;;;;22.29;26.92;102393.00;7309944;19;129674;-60
2021/12/22 08:11:14;;;;;;;10.02;3.40;;;;;;;22.26;26.50;102396.28;7318826;19;129080;-60
2021/12/22 08:13:41;;;;;;;8.38;3.38;;;;;;;22.47;26.42;102394.06;7316425;19;130992;-61
2021/12/22 08:16:08;;;;;;;9.43;3.67;;;;;;;22.50;26.36;102396.38;7316011;19;130664;-60
2021/12/22 08:18:36;;;;;;;9.10;3.15;;;;;;;22.52;26.23;102397.00;7314441;19;129011;-59
2021/12/22 08:21:02;;;;;;;9.25;3.22;;;;;;;22.59;26.39;102401.38;7317250;19;130077;-60
2021/12/22 08:23:34;;;;;;;7.90;3.20;;;;;;;22.61;26.31;102411.44;7314598;19;130628;-60
2021/12/22 08:26:00;;;;;;;6.60;3.35;;;;;;;22.68;26.23;102407.47;7317387;19;130670;-59
2021/12/22 08:28:27;;;;;;;5.88;2.85;;;;;;;22.67;26.02;102413.28;7313186;19;129094;-60
2021/12/22 08:30:54;;;;;;;8.23;3.30;;;;;;;22.73;25.97;102412.31;7314150;19;129197;-60
2021/12/22 08:33:23;;;;;;;9.77;2.92;;;;;;;22.83;25.72;102417.34;7314014;19;130620;-60
2021/12/22 08:38:52;;;;;;;8.07;3.40;;;;;;;22.92;25.89;102418.72;7313448;19;129065;-60
2021/12/22 08:41:23;;;;;;;8.57;3.33;;;;;;;23.02;25.91;102418.13;7314655;19;128938;-60
2021/12/22 08:43:52;;;;;;;5.78;2.83;;;;;;;23.00;25.69;102423.97;7316694;19;131150;-60
2021/12/22 08:46:19;;;;;;;6.25;2.83;;;;;;;22.91;25.66;102421.75;7313715;19;131241;-58
2021/12/22 08:48:46;;;;;;;5.63;3.40;;;;;;;22.85;25.87;102417.94;7316488;19;129024;-59
2021/12/22 08:51:13;;;;;;;6.43;3.20;;;;;;;22.82;25.91;102419.28;7311107;19;129313;-61
2021/12/22 08:53:41;;;;;;;5.65;3.30;;;;;;;22.80;25.72;102412.22;7316051;19;130831;-59
2021/12/22 08:56:07;;;;;;;5.80;3.00;;;;;;;22.76;26.17;102419.38;7311544;19;131185;-60
2021/12/22 08:58:35;;;;;;;5.45;3.00;;;;;;;22.70;25.96;102410.03;7314689;19;128934;-60
2021/12/22 09:01:03;;;;;;;11.40;3.60;;;;;;;22.66;25.98;102408.81;7310788;19;128920;-60
2021/12/22 09:03:30;;;;;;;5.97;2.92;;;;;;;22.57;25.94;102411.06;7315295;19;131038;-59
2021/12/22 09:05:56;;;;;;;6.47;2.88;;;;;;;22.49;26.11;102403.03;7312911;19;130933;-58
2021/12/22 09:08:23;;;;;;;6.28;3.28;;;;;;;22.43;26.20;102402.06;7315148;19;129812;-60
2021/12/22 09:10:50;;;;;;;7.35;3.08;;;;;;;22.38;26.22;102402.78;7311981;19;135756;-61
2021/12/22 09:13:19;;;;;;;5.78;3.40;;;;;;;22.37;26.36;102408.56;7315760;19;130340;-60
2021/12/22 09:15:48;;;;;;;6.38;3.25;;;;;;;22.32;26.52;102398.13;7312413;19;130432;-60
2021/12/22 09:18:16;;;;;;;5.43;2.90;;;;;;;22.30;26.14;102394.72;7315934;19;129530;-60
2021/12/22 09:20:43;;;;;;;8.95;3.17;;;;;;;22.27;26.21;102393.25;7311127;19;130105;-59
2021/12/22 09:23:10;;;;;;;7.53;3.17;;;;;;;22.25;25.72;102394.59;7315066;19;131818;-60
2021/12/22 09:25:36;;;;;;;6.32;3.00;;;;;;;22.22;25.71;102389.47;7311203;19;131486;-60
2021/12/22 09:28:04;;;;;;;8.70;3.10;;;;;;;22.21;25.87;102388.66;7313877;19;129492;-58
2021/12/22 09:30:35;;;;;;;6.32;3.35;;;;;;;22.19;25.78;102387.13;7310986;19;128869;-60
2021/12/22 09:33:05;;;;;;;8.10;3.58;;;;;;;22.16;25.69;102382.88;7313251;19;130515;-59
2021/12/22 09:35:33;;;;;;;17.92;3.53;;;;;;;22.15;25.72;102389.53;7311764;19;130580;-60
2021/12/22 09:37:59;;;;;;;16.25;4.10;;;;;;;22.18;25.88;102385.41;7315129;19;128950;-59
2021/12/22 09:40:26;;;;;;;14.15;4.05;;;;;;;22.23;26.07;102385.59;7312088;19;129039;-58
2021/12/22 09:42:53;;;;;;;14.40;4.13;;;;;;;22.31;25.70;102373.28;7312297;19;131372;-59
2021/12/22 09:45:23;;;;;;;17.60;3.90;;;;;;;22.38;26.01;102372.09;7310731;19;131333;-60
2021/12/22 09:50:46;;;;;;;8.95;3.42;;;;;;;22.58;25.45;102380.16;7302598;19;129155;-60
2021/12/22 09:53:16;;;;;;;12.00;3.80;;;;;;;22.64;25.46;102381.16;7311449;19;130700;-59
2021/12/22 09:55:43;;;;;;;16.50;4.07;;;;;;;22.66;25.36;102370.59;7310601;19;131098;-59
2021/12/22 09:58:10;;;;;;;10.68;3.30;;;;;;;22.68;25.85;102371.19;7310879;19;128901;-59
2021/12/22 10:00:38;;;;;;;11.18;4.10;;;;;;;22.70;25.61;102377.41;7310946;19;130367;-59
2021/12/22 10:03:07;;;;;;;7.65;3.20;;;;;;;22.69;25.66;102377.66;7309798;19;130541;-59
2021/12/22 10:05:35;;;;;;;9.88;4.18;;;;;;;22.70;25.67;102376.56;7311230;19;130779;-59
2021/12/22 10:08:15;;;;;;;8.57;3.53;;;;;;;22.71;25.47;102373.53;7309548;19;129313;-60
2021/12/22 10:11:04;;;;;;;9.25;3.60;;;;;;;22.73;25.58;102374.13;7313553;19;129004;-60
2021/12/22 10:13:31;;;;;;;13.15;3.70;;;;;;;22.74;25.56;102367.47;7309864;19;130932;-59
2021/12/22 10:15:59;;;;;;;13.00;4.13;;;;;;;22.74;25.74;102367.47;7311990;19;130530;-59
2021/12/22 10:18:28;;;;;;;15.77;3.88;;;;;;;22.74;26.01;102361.88;7310050;19;128778;-59
2021/12/22 10:21:21;;;;;;;10.32;4.38;;;;;;;22.76;26.07;102358.84;7313700;19;129047;-60
2021/12/22 10:23:52;;;;;;;12.18;4.18;;;;;;;22.75;25.87;102357.16;7310159;19;131359;-59
2021/12/22 10:26:27;;;;;;;6.53;3.63;;;;;;;22.73;26.17;102360.19;7307967;19;130606;-59
2021/12/22 10:28:55;;;;;;;10.00;3.33;;;;;;;22.73;26.24;102349.03;7312375;19;128924;-60
2021/12/22 10:31:36;;;;;;;8.23;3.67;;;;;;;22.73;26.21;102343.44;7309514;19;130922;-60
2021/12/22 10:34:09;;;;;;;12.23;3.63;;;;;;;22.71;26.34;102342.84;7312818;19;130759;-59
2021/12/22 10:36:47;;;;;;;6.68;3.65;;;;;;;22.71;26.38;102331.66;7309964;19;130533;-59
2021/12/22 10:39:18;;;;;;;8.93;3.55;;;;;;;22.68;26.45;102323.78;7313149;19;128927;-58
2021/12/22 10:41:44;;;;;;;7.80;3.83;;;;;;;22.66;26.64;102325.94;7308523;19;129092;-60
2021/12/22 10:44:16;;;;;;;7.15;3.30;;;;;;;22.63;26.34;102336.75;7309644;19;131917;-59
2021/12/22 10:46:43;;;;;;;14.63;4.10;;;;;;;22.58;26.25;102335.53;7309915;19;133476;-59
2021/12/22 10:49:19;;;;;;;7.68;3.50;;;;;;;22.52;26.10;102322.53;7313258;19;128949;-59
2021/12/22 10:52:01;;;;;;;7.85;3.55;;;;;;;22.46;26.74;102319.84;7311239;19;129357;-59
2021/12/22 10:54:38;;;;;;;13.82;3.47;;;;;;;22.40;26.47;102316.91;7311149;19;130504;-59
2021/12/22 10:57:09;;;;;;;9.30;3.85;;;;;;;22.30;26.65;102322.22;7311380;19;131251;-59
2021/12/22 10:59:49;;;;;;;10.13;3.70;;;;;;;22.22;26.84;102319.78;7308083;19;128997;-59
2021/12/22 11:02:23;;;;;;;8.43;3.60;;;;;;;22.13;26.95;102317.31;7313924;19;129379;-59
2021/12/22 11:04:51;;;;;;;12.50;4.10;;;;;;;22.05;26.63;102314.84;7317007;19;130863;-60
2021/12/22 11:07:25;;;;;;;7.38;3.30;;;;;;;22.00;26.91;102316.63;7316003;19;131416;-60
2021/12/22 11:09:52;;;;;;;8.68;3.40;;;;;;;21.92;26.81;102303.88;7314690;19;129241;-59
2021/12/22 11:12:36;;;;;;;10.77;3.25;;;;;;;21.87;27.05;102304.59;7318863;19;128837;-59
2021/12/22 11:15:04;;;;;;;10.68;3.75;;;;;;;21.83;26.86;102307.00;7316027;19;130581;-60
2021/12/22 11:17:31;;;;;;;9.07;3.40;;;;;;;21.82;27.11;102305.28;7316670;19;130530;-59
2021/12/22 11:20:04;;;;;;;7.72;3.55;;;;;;;21.82;27.14;102305.28;7316059;19;128977;-59
2021/12/22 11:22:41;;;;;;;6.65;3.20;;;;;;;21.85;27.37;102306.75;7314415;19;131216;-60
2021/12/22 11:25:12;;;;;;;7.07;3.05;;;;;;;21.86;27.23;102299.25;7307493;19;130582;-60
2021/12/22 11:27:41;;;;;;;7.15;3.40;;;;;;;21.87;27.14;102304.59;7309322;19;131010;-60
2021/12/22 11:30:10;;;;;;;8.68;3.70;;;;;;;21.91;27.36;102296.63;7311726;19;128787;-59
2021/12/22 11:32:37;;;;;;;16.80;3.45;;;;;;;21.96;27.34;102288.41;7316473;19;130786;-60
2021/12/22 11:35:07;;;;;;;9.30;2.95;;;;;;;22.05;27.27;102292.53;7317614;19;130599;-60
2021/12/22 11:37:34;;;;;;;7.22;3.22;;;;;;;22.15;26.64;102291.16;7317251;19;130640;-59
2021/12/22 11:40:03;;;;;;;7.93;2.97;;;;;;;22.23;27.00;102277.72;7316642;19;128886;-60